createdAt,value
2019-05-20T00:00:40.161Z,97171.77
2019-05-20T00:03:09.957Z,97170.79
2019-05-20T00:05:39.765Z,97164.89
2019-05-20T00:08:09.433Z,97166.88
2019-05-20T00:10:39.053Z,97167.97
2019-05-20T00:13:08.703Z,97168.23
2019-05-20T00:15:38.396Z,97175.49
2019-05-20T00:18:08.051Z,97171.14
2019-05-20T00:20:37.671Z,97168.34
2019-05-20T00:23:07.340Z,97165.87
2019-05-20T00:25:37.015Z,97158.92
2019-05-20T00:28:06.630Z,97155.84
2019-05-20T00:30:36.293Z,97158.53
2019-05-20T00:33:05.993Z,97157.56
2019-05-20T00:35:36.040Z,97159.98
2019-05-20T00:38:05.667Z,97156.97
2019-05-20T00:40:35.460Z,97157.89
2019-05-20T00:43:05.086Z,97161.33
2019-05-20T00:45:34.803Z,97152.52
2019-05-20T00:48:04.422Z,97152.29
2019-05-20T00:50:35.403Z,97151.17
2019-05-20T00:53:05.094Z,97154.72
2019-05-20T00:55:36.882Z,97147.45
2019-05-20T00:58:06.529Z,97151.38
2019-05-20T01:00:36.929Z,97154.28
2019-05-20T01:03:06.721Z,97158.05
2019-05-20T01:05:36.342Z,97147.79
2019-05-20T01:08:06.057Z,97149.75
2019-05-20T01:10:35.685Z,97147.66
2019-05-20T01:13:08.020Z,97145.72
2019-05-20T01:15:37.645Z,97147.20
2019-05-20T01:18:07.312Z,97150.05
2019-05-20T01:20:36.949Z,97146.86
2019-05-20T01:23:06.841Z,97150.37
2019-05-20T01:25:36.483Z,97138.86
2019-05-20T01:28:06.106Z,97136.27
2019-05-20T01:30:35.814Z,97133.58
2019-05-20T01:33:13.933Z,97133.58
2019-05-20T01:35:36.881Z,97141.27
2019-05-20T01:38:06.507Z,97144.91
2019-05-20T01:40:36.149Z,97144.55
2019-05-20T01:43:05.785Z,97147.99
2019-05-20T01:45:35.433Z,97156.05
2019-05-20T01:48:05.079Z,97160.45
2019-05-20T01:50:34.770Z,97155.36
2019-05-20T01:53:04.429Z,97146.11
2019-05-20T01:55:34.042Z,97142.94
2019-05-20T01:58:03.691Z,97135.75
2019-05-20T02:00:33.324Z,97135.85
2019-05-20T02:03:02.962Z,97136.39
2019-05-20T02:05:32.593Z,97134.87
2019-05-20T02:08:02.604Z,97131.82
2019-05-20T02:10:32.224Z,97134.55
2019-05-20T02:13:01.844Z,97132.88
2019-05-20T02:15:33.132Z,97133.47
2019-05-20T02:18:02.749Z,97130.68
2019-05-20T02:20:32.401Z,97132.55
2019-05-20T02:23:15.474Z,97129.81
2019-05-20T02:25:47.513Z,97130.66
2019-05-20T02:28:17.475Z,97130.44
2019-05-20T02:30:47.191Z,97133.71
2019-05-20T02:33:16.817Z,97131.78
2019-05-20T02:35:46.524Z,97135.64
2019-05-20T02:38:16.144Z,97131.45
2019-05-20T02:40:45.838Z,97132.30
2019-05-20T02:43:15.695Z,97128.67
2019-05-20T02:45:45.383Z,97124.64
2019-05-20T02:48:15.101Z,97128.30
2019-05-20T02:50:44.727Z,97118.75
2019-05-20T02:53:14.441Z,97122.45
2019-05-20T02:55:44.095Z,97121.60
2019-05-20T02:58:13.792Z,97114.84
2019-05-20T03:00:43.485Z,97119.53
2019-05-20T03:03:13.134Z,97122.80
2019-05-20T03:05:42.825Z,97118.41
2019-05-20T03:08:12.444Z,97127.00
2019-05-20T03:10:42.763Z,97120.23
2019-05-20T03:13:12.454Z,97120.56
2019-05-20T03:15:42.100Z,97129.42
2019-05-20T03:18:11.727Z,97126.42
2019-05-20T03:20:41.393Z,97127.91
2019-05-20T03:23:11.614Z,97127.09
2019-05-20T03:25:41.581Z,97124.05
2019-05-20T03:28:11.298Z,97128.50
2019-05-20T03:30:40.941Z,97128.59
2019-05-20T03:33:10.562Z,97126.13
2019-05-20T03:35:40.261Z,97123.39
2019-05-20T03:38:09.900Z,97128.88
2019-05-20T03:40:39.510Z,97123.45
2019-05-20T03:43:09.237Z,97127.13
2019-05-20T03:45:38.858Z,97121.48
2019-05-20T03:48:08.510Z,97121.31
2019-05-20T03:50:38.142Z,97125.55
2019-05-20T03:53:07.793Z,97121.76
2019-05-20T03:55:37.395Z,97127.75
2019-05-20T03:58:07.038Z,97120.31
2019-05-20T04:00:49.459Z,97121.70
2019-05-20T04:03:19.282Z,97127.03
2019-05-20T04:05:49.116Z,97123.31
2019-05-20T04:08:18.742Z,97119.77
2019-05-20T04:10:48.390Z,97116.11
2019-05-20T04:13:18.155Z,97119.87
2019-05-20T04:15:47.807Z,97119.33
2019-05-20T04:18:17.500Z,97125.50
2019-05-20T04:20:47.162Z,97121.42
2019-05-20T04:23:16.844Z,97120.36
2019-05-20T04:25:46.503Z,97115.46
2019-05-20T04:28:16.165Z,97113.76
2019-05-20T04:30:45.826Z,97110.89
2019-05-20T04:33:15.549Z,97113.58
2019-05-20T04:35:49.486Z,97112.36
2019-05-20T04:38:16.541Z,97111.13
2019-05-20T04:40:46.175Z,97112.78
2019-05-20T04:43:15.815Z,97104.67
2019-05-20T04:45:45.567Z,97112.19
2019-05-20T04:48:15.226Z,97113.06
2019-05-20T04:50:44.848Z,97113.11
2019-05-20T04:53:14.524Z,97116.64
2019-05-20T04:55:44.178Z,97108.98
2019-05-20T04:58:13.776Z,97118.69
2019-05-20T05:00:53.002Z,97115.36
2019-05-20T05:03:23.797Z,97125.90
2019-05-20T05:05:53.773Z,97125.84
2019-05-20T05:08:23.920Z,97132.88
2019-05-20T05:10:53.884Z,97135.79
2019-05-20T05:13:24.707Z,97137.89
2019-05-20T05:15:54.553Z,97135.61
2019-05-20T05:18:24.389Z,97143.41
2019-05-20T05:20:54.257Z,97141.31
2019-05-20T05:23:24.586Z,97143.02
2019-05-20T05:25:54.415Z,97146.69
2019-05-20T05:28:24.194Z,97146.09
2019-05-20T05:30:54.193Z,97141.36
2019-05-20T05:33:23.907Z,97141.36
2019-05-20T05:35:53.981Z,97141.17
2019-05-20T05:38:23.830Z,97139.97
2019-05-20T05:40:53.591Z,97144.05
2019-05-20T05:43:23.235Z,97140.23
2019-05-20T05:45:52.859Z,97143.15
2019-05-20T05:48:23.027Z,97146.14
2019-05-20T05:50:52.713Z,97143.51
2019-05-20T05:53:22.411Z,97143.15
2019-05-20T05:55:52.061Z,97144.75
2019-05-20T05:58:21.685Z,97145.19
2019-05-20T06:00:51.414Z,97134.66
2019-05-20T06:03:21.043Z,97142.67
2019-05-20T06:05:50.670Z,97138.59
2019-05-20T06:08:20.325Z,97140.69
2019-05-20T06:10:50.006Z,97145.56
2019-05-20T06:13:19.627Z,97145.36
2019-05-20T06:15:49.276Z,97147.69
2019-05-20T06:18:18.900Z,97147.09
2019-05-20T06:20:48.575Z,97150.30
2019-05-20T06:23:18.204Z,97146.27
2019-05-20T06:25:47.837Z,97140.09
2019-05-20T06:28:17.485Z,97144.35
2019-05-20T06:30:47.742Z,97148.10
2019-05-20T06:33:17.554Z,97146.01
2019-05-20T06:35:47.912Z,97136.17
2019-05-20T06:38:19.940Z,97143.39
2019-05-20T06:40:49.569Z,97142.42
2019-05-20T06:43:19.329Z,97144.80
2019-05-20T06:45:48.945Z,97143.02
2019-05-20T06:48:18.609Z,97148.60
2019-05-20T06:50:48.225Z,97153.49
2019-05-20T06:53:17.845Z,97157.01
2019-05-20T06:55:47.492Z,97159.84
2019-05-20T06:58:17.126Z,97157.52
2019-05-20T07:00:46.769Z,97156.13
2019-05-20T07:03:16.391Z,97157.53
2019-05-20T07:05:46.099Z,97161.66
2019-05-20T07:08:15.716Z,97162.23
2019-05-20T07:10:46.033Z,97163.69
2019-05-20T07:13:16.293Z,97164.23
2019-05-20T07:15:46.286Z,97162.83
2019-05-20T07:18:15.916Z,97167.24
2019-05-20T07:20:45.591Z,97164.46
2019-05-20T07:23:15.209Z,97168.88
2019-05-20T07:25:44.832Z,97157.11
2019-05-20T07:28:14.553Z,97159.74
2019-05-20T07:30:44.417Z,97163.86
2019-05-20T07:33:14.139Z,97169.24
2019-05-20T07:35:44.330Z,97167.13
2019-05-20T07:38:13.976Z,97173.28
2019-05-20T07:40:43.605Z,97176.51
2019-05-20T07:43:13.325Z,97168.58
2019-05-20T07:45:43.750Z,97172.82
2019-05-20T07:48:13.717Z,97180.44
2019-05-20T07:50:44.366Z,97180.95
2019-05-20T07:53:14.976Z,97176.05
2019-05-20T07:55:58.253Z,97173.80
2019-05-20T07:58:33.752Z,97172.77
2019-05-20T08:01:03.809Z,97169.36
2019-05-20T08:03:33.485Z,97176.62
2019-05-20T08:06:03.140Z,97175.45
2019-05-20T08:08:33.129Z,97181.47
2019-05-20T08:11:03.042Z,97183.64
2019-05-20T08:13:32.734Z,97180.72
2019-05-20T08:16:02.409Z,97174.48
2019-05-20T08:18:32.105Z,97176.25
2019-05-20T08:21:01.753Z,97175.85
2019-05-20T08:23:31.376Z,97175.11
2019-05-20T08:26:01.217Z,97184.50
2019-05-20T08:28:30.999Z,97175.08
2019-05-20T08:31:00.612Z,97187.99
2019-05-20T08:33:30.457Z,97183.95
2019-05-20T08:36:00.122Z,97180.47
2019-05-20T08:38:29.787Z,97181.47
2019-05-20T08:40:59.505Z,97180.30
2019-05-20T08:43:29.193Z,97191.72
2019-05-20T08:45:58.855Z,97193.05
2019-05-20T08:48:28.533Z,97195.27
2019-05-20T08:50:58.206Z,97200.53
2019-05-20T08:53:27.904Z,97203.91
2019-05-20T08:55:57.534Z,97208.60
2019-05-20T08:58:27.143Z,97211.89
2019-05-20T09:00:56.798Z,97213.50
2019-05-20T09:03:30.178Z,97214.84
2019-05-20T09:05:57.937Z,97212.70
2019-05-20T09:08:27.763Z,97219.96
2019-05-20T09:10:57.422Z,97216.12
2019-05-20T09:13:27.221Z,97216.67
2019-05-20T09:15:56.896Z,97219.39
2019-05-20T09:18:26.515Z,97211.70
2019-05-20T09:20:56.162Z,97215.27
2019-05-20T09:23:25.796Z,97217.79
2019-05-20T09:25:55.461Z,97214.19
2019-05-20T09:28:25.859Z,97218.77
2019-05-20T09:30:55.963Z,97220.28
2019-05-20T09:33:26.779Z,97211.66
2019-05-20T09:35:56.465Z,97207.42
2019-05-20T09:38:26.122Z,97211.41
2019-05-20T09:40:55.796Z,97201.93
2019-05-20T09:43:25.481Z,97200.73
2019-05-20T09:46:06.146Z,97204.54
2019-05-20T09:48:26.492Z,97209.98
2019-05-20T09:50:56.191Z,97202.22
2019-05-20T09:53:25.910Z,97207.55
2019-05-20T09:55:55.561Z,97198.30
2019-05-20T09:58:25.285Z,97199.84
2019-05-20T10:00:55.040Z,97203.62
2019-05-20T10:03:24.711Z,97202.90
2019-05-20T10:05:54.411Z,97209.10
2019-05-20T10:08:37.527Z,97211.31
2019-05-20T10:10:59.424Z,97218.72
2019-05-20T10:13:26.955Z,97224.84
2019-05-20T10:15:56.606Z,97228.09
2019-05-20T10:18:36.716Z,97232.67
2019-05-20T10:20:57.674Z,97235.24
2019-05-20T10:23:27.309Z,97244.61
2019-05-20T10:25:57.028Z,97245.66
2019-05-20T10:28:26.640Z,97243.34
2019-05-20T10:30:56.322Z,97243.63
2019-05-20T10:33:26.067Z,97244.91
2019-05-20T10:35:55.715Z,97247.42
2019-05-20T10:38:25.336Z,97250.25
2019-05-20T10:40:55.005Z,97252.44
2019-05-20T10:43:24.625Z,97256.76
2019-05-20T10:45:54.300Z,97258.11
2019-05-20T10:48:23.934Z,97262.52
2019-05-20T10:50:53.632Z,97259.45
2019-05-20T10:53:23.363Z,97259.88
2019-05-20T10:55:52.995Z,97258.08
2019-05-20T10:58:22.665Z,97261.58
2019-05-20T11:01:02.512Z,97258.94
2019-05-20T11:03:23.806Z,97262.69
2019-05-20T11:05:53.496Z,97269.19
2019-05-20T11:08:23.224Z,97275.38
2019-05-20T11:10:52.968Z,97272.91
2019-05-20T11:13:22.657Z,97276.72
2019-05-20T11:15:52.372Z,97279.77
2019-05-20T11:18:22.229Z,97278.16
2019-05-20T11:20:51.932Z,97281.85
2019-05-20T11:23:21.562Z,97285.69
2019-05-20T11:25:51.209Z,97286.11
2019-05-20T11:28:20.829Z,97283.70
2019-05-20T11:30:50.474Z,97283.88
2019-05-20T11:33:20.097Z,97293.35
2019-05-20T11:35:49.747Z,97291.20
2019-05-20T11:38:19.448Z,97282.84
2019-05-20T11:40:49.181Z,97285.88
2019-05-20T11:43:18.942Z,97276.88
2019-05-20T11:45:48.610Z,97281.73
2019-05-20T11:48:18.233Z,97281.73
2019-05-20T11:50:47.862Z,97282.86
2019-05-20T11:53:17.760Z,97277.96
2019-05-20T11:55:47.392Z,97279.56
2019-05-20T11:58:17.050Z,97276.56
2019-05-20T12:00:46.741Z,97280.11
2019-05-20T12:03:16.394Z,97278.28
2019-05-20T12:05:46.117Z,97281.52
2019-05-20T12:08:15.754Z,97280.31
2019-05-20T12:10:45.846Z,97273.64
2019-05-20T12:13:15.503Z,97273.44
2019-05-20T12:15:45.130Z,97270.09
2019-05-20T12:18:14.792Z,97266.34
2019-05-20T12:20:48.543Z,97271.98
2019-05-20T12:23:18.168Z,97270.69
2019-05-20T12:25:47.890Z,97274.94
2019-05-20T12:28:17.510Z,97280.86
2019-05-20T12:30:47.168Z,97275.22
2019-05-20T12:33:19.067Z,97281.34
2019-05-20T12:35:48.177Z,97275.37
2019-05-20T12:38:17.814Z,97283.19
2019-05-20T12:40:47.456Z,97280.95
2019-05-20T12:43:17.078Z,97279.09
2019-05-20T12:45:46.796Z,97278.33
2019-05-20T12:48:16.421Z,97275.34
2019-05-20T12:50:46.073Z,97278.58
2019-05-20T12:53:15.700Z,97281.97
2019-05-20T12:55:45.422Z,97281.59
2019-05-20T12:58:15.045Z,97283.25
2019-05-20T13:00:44.970Z,97277.16
2019-05-20T13:03:14.599Z,97282.91
2019-05-20T13:05:44.237Z,97278.41
2019-05-20T13:08:13.909Z,97275.05
2019-05-20T13:10:43.527Z,97266.11
2019-05-20T13:13:13.180Z,97267.36
2019-05-20T13:15:42.812Z,97263.87
2019-05-20T13:18:12.452Z,97262.59
2019-05-20T13:20:42.089Z,97260.89
2019-05-20T13:23:13.924Z,97262.05
2019-05-20T13:25:43.126Z,97266.52
2019-05-20T13:28:12.795Z,97260.80
2019-05-20T13:30:42.426Z,97261.28
2019-05-20T13:33:12.122Z,97261.48
2019-05-20T13:35:41.773Z,97263.75
2019-05-20T13:38:11.409Z,97270.42
2019-05-20T13:40:46.223Z,97261.80
2019-05-20T13:43:12.412Z,97266.13
2019-05-20T13:45:42.063Z,97264.77
2019-05-20T13:48:11.692Z,97264.27
2019-05-20T13:50:41.366Z,97258.55
2019-05-20T13:53:10.981Z,97263.29
2019-05-20T13:55:40.634Z,97262.66
2019-05-20T13:58:10.333Z,97260.08
2019-05-20T14:00:39.967Z,97256.66
2019-05-20T14:03:09.688Z,97256.47
2019-05-20T14:05:39.315Z,97254.03
2019-05-20T14:08:09.029Z,97251.38
2019-05-20T14:10:38.782Z,97255.64
2019-05-20T14:13:08.431Z,97242.30
2019-05-20T14:15:38.092Z,97249.59
2019-05-20T14:18:07.848Z,97248.23
2019-05-20T14:20:37.476Z,97246.53
2019-05-20T14:23:07.098Z,97247.95
2019-05-20T14:25:36.745Z,97250.39
2019-05-20T14:28:06.449Z,97246.59
2019-05-20T14:30:36.180Z,97251.85
2019-05-20T14:33:05.797Z,97251.85
2019-05-20T14:35:35.441Z,97252.95
2019-05-20T14:38:05.071Z,97251.70
2019-05-20T14:40:34.750Z,97248.17
2019-05-20T14:43:04.378Z,97247.23
2019-05-20T14:45:34.022Z,97245.20
2019-05-20T14:48:03.791Z,97241.45
2019-05-20T14:50:33.564Z,97241.28
2019-05-20T14:53:03.226Z,97241.73
2019-05-20T14:55:41.834Z,97241.26
2019-05-20T14:58:04.269Z,97244.20
2019-05-20T15:00:33.901Z,97237.21
2019-05-20T15:03:03.544Z,97243.80
2019-05-20T15:05:33.219Z,97243.81
2019-05-20T15:08:02.941Z,97248.80
2019-05-20T15:10:32.833Z,97245.89
2019-05-20T15:13:04.517Z,97249.45
2019-05-20T15:15:34.749Z,97245.48
2019-05-20T15:18:04.419Z,97247.71
2019-05-20T15:20:34.075Z,97247.52
2019-05-20T15:23:05.461Z,97253.68
2019-05-20T15:25:35.215Z,97252.66
2019-05-20T15:28:04.931Z,97246.75
2019-05-20T15:30:34.584Z,97246.80
2019-05-20T15:33:07.081Z,97249.31
2019-05-20T15:35:36.741Z,97254.89
2019-05-20T15:38:06.387Z,97259.33
2019-05-20T15:40:36.023Z,97250.30
2019-05-20T15:43:05.807Z,97255.21
2019-05-20T15:45:35.429Z,97259.05
2019-05-20T15:48:05.153Z,97257.33
2019-05-20T15:50:34.780Z,97251.71
2019-05-20T15:53:04.516Z,97258.68
2019-05-20T15:55:34.211Z,97250.77
2019-05-20T15:58:04.030Z,97261.04
2019-05-20T16:00:33.928Z,97253.09
2019-05-20T16:03:03.585Z,97251.63
2019-05-20T16:05:33.281Z,97250.53
2019-05-20T16:08:03.691Z,97257.52
2019-05-20T16:10:33.374Z,97257.63
2019-05-20T16:13:03.076Z,97265.02
2019-05-20T16:15:32.727Z,97262.61
2019-05-20T16:18:02.463Z,97261.47
2019-05-20T16:20:32.359Z,97258.64
2019-05-20T16:23:01.995Z,97256.50
2019-05-20T16:25:31.644Z,97259.03
2019-05-20T16:28:01.276Z,97262.89
2019-05-20T16:30:30.928Z,97259.71
2019-05-20T16:33:00.636Z,97268.81
2019-05-20T16:35:30.328Z,97266.38
2019-05-20T16:37:59.988Z,97263.02
2019-05-20T16:40:29.621Z,97269.50
2019-05-20T16:42:59.296Z,97269.34
2019-05-20T16:45:28.919Z,97272.39
2019-05-20T16:47:58.569Z,97275.81
2019-05-20T16:50:28.197Z,97269.81
2019-05-20T16:52:57.912Z,97277.97
2019-05-20T16:55:27.559Z,97278.03
2019-05-20T16:57:57.212Z,97271.23
2019-05-20T17:00:32.201Z,97275.95
2019-05-20T17:02:58.370Z,97276.81
2019-05-20T17:05:27.999Z,97276.27
2019-05-20T17:07:57.623Z,97279.44
2019-05-20T17:10:27.268Z,97278.70
2019-05-20T17:12:56.966Z,97276.62
2019-05-20T17:15:26.620Z,97280.17
2019-05-20T17:17:56.244Z,97281.33
2019-05-20T17:20:25.974Z,97277.48
2019-05-20T17:22:55.595Z,97272.16
2019-05-20T17:25:25.359Z,97281.10
2019-05-20T17:27:55.176Z,97281.94
2019-05-20T17:30:24.940Z,97281.20
2019-05-20T17:32:54.600Z,97284.69
2019-05-20T17:35:24.237Z,97288.56
2019-05-20T17:37:55.307Z,97296.88
2019-05-20T17:40:25.339Z,97292.66
2019-05-20T17:42:55.059Z,97289.91
2019-05-20T17:45:24.691Z,97291.06
2019-05-20T17:47:54.440Z,97292.61
2019-05-20T17:50:24.210Z,97289.61
2019-05-20T17:52:53.885Z,97292.61
2019-05-20T17:55:23.772Z,97291.95
2019-05-20T17:57:54.094Z,97296.34
2019-05-20T18:00:23.944Z,97298.41
2019-05-20T18:02:53.781Z,97296.26
2019-05-20T18:05:23.507Z,97294.97
2019-05-20T18:07:53.201Z,97299.55
2019-05-20T18:10:24.497Z,97295.77
2019-05-20T18:12:54.202Z,97307.34
2019-05-20T18:15:24.066Z,97308.03
2019-05-20T18:17:53.691Z,97308.15
2019-05-20T18:20:23.556Z,97314.36
2019-05-20T18:22:53.187Z,97310.44
2019-05-20T18:25:22.865Z,97318.34
2019-05-20T18:27:52.607Z,97319.92
2019-05-20T18:30:22.566Z,97320.78
2019-05-20T18:32:52.222Z,97325.91
2019-05-20T18:35:21.990Z,97321.64
2019-05-20T18:37:51.650Z,97322.18
2019-05-20T18:40:21.480Z,97323.53
2019-05-20T18:42:51.131Z,97332.41
2019-05-20T18:45:20.840Z,97324.33
2019-05-20T18:47:50.547Z,97333.60
2019-05-20T18:50:20.484Z,97335.00
2019-05-20T18:52:50.139Z,97337.70
2019-05-20T18:55:19.940Z,97339.64
2019-05-20T18:57:49.678Z,97340.75
2019-05-20T19:00:19.673Z,97344.05
2019-05-20T19:02:49.305Z,97339.80
2019-05-20T19:05:19.192Z,97336.52
2019-05-20T19:07:49.096Z,97338.34
2019-05-20T19:10:19.095Z,97343.78
2019-05-20T19:12:48.742Z,97341.14
2019-05-20T19:15:18.641Z,97336.02
2019-05-20T19:17:48.272Z,97339.15
2019-05-20T19:20:17.988Z,97344.64
2019-05-20T19:22:47.616Z,97357.40
2019-05-20T19:25:17.354Z,97349.87
2019-05-20T19:27:46.976Z,97350.18
2019-05-20T19:30:17.507Z,97345.59
2019-05-20T19:32:47.151Z,97355.45
2019-05-20T19:35:16.848Z,97354.16
2019-05-20T19:37:46.535Z,97358.95
2019-05-20T19:40:16.399Z,97365.95
2019-05-20T19:42:46.075Z,97369.45
2019-05-20T19:45:15.935Z,97371.60
2019-05-20T19:47:45.667Z,97369.17
2019-05-20T19:50:17.359Z,97378.82
2019-05-20T19:52:47.405Z,97381.83
2019-05-20T19:55:18.949Z,97378.49
2019-05-20T19:57:48.585Z,97377.52
2019-05-20T20:00:18.655Z,97374.57
2019-05-20T20:02:48.280Z,97371.88
2019-05-20T20:05:18.036Z,97369.81
2019-05-20T20:07:47.672Z,97371.11
2019-05-20T20:10:17.462Z,97374.73
2019-05-20T20:12:47.092Z,97370.30
2019-05-20T20:15:20.805Z,97376.44
2019-05-20T20:17:50.493Z,97381.30
2019-05-20T20:20:20.152Z,97386.73
2019-05-20T20:22:49.785Z,97384.66
2019-05-20T20:25:19.662Z,97384.84
2019-05-20T20:27:49.281Z,97391.78
2019-05-20T20:30:19.313Z,97393.81
2019-05-20T20:32:48.977Z,97398.02
2019-05-20T20:35:18.813Z,97392.75
2019-05-20T20:37:48.483Z,97384.19
2019-05-20T20:40:18.941Z,97387.37
2019-05-20T20:42:48.609Z,97394.85
2019-05-20T20:45:18.386Z,97394.20
2019-05-20T20:47:48.013Z,97395.31
2019-05-20T20:50:18.578Z,97401.67
2019-05-20T20:52:48.280Z,97401.77
2019-05-20T20:55:18.005Z,97406.83
2019-05-20T20:57:47.625Z,97411.02
2019-05-20T21:00:17.784Z,97414.38
2019-05-20T21:02:53.094Z,97426.88
2019-05-20T21:05:19.165Z,97427.87
2019-05-20T21:07:51.669Z,97420.16
2019-05-20T21:10:20.288Z,97436.83
2019-05-20T21:12:49.935Z,97433.88
2019-05-20T21:15:19.560Z,97435.71
2019-05-20T21:17:49.219Z,97431.09
2019-05-20T21:20:18.837Z,97432.58
2019-05-20T21:22:48.487Z,97432.99
2019-05-20T21:25:18.187Z,97430.78
2019-05-20T21:27:47.836Z,97429.98
2019-05-20T21:30:17.604Z,97434.59
2019-05-20T21:32:47.267Z,97440.11
2019-05-20T21:35:16.897Z,97444.00
2019-05-20T21:37:46.545Z,97445.62
2019-05-20T21:40:16.373Z,97448.05
2019-05-20T21:42:45.996Z,97450.19
2019-05-20T21:45:15.863Z,97451.05
2019-05-20T21:47:45.488Z,97449.40
2019-05-20T21:50:15.353Z,97443.83
2019-05-20T21:52:44.976Z,97446.25
2019-05-20T21:55:14.845Z,97443.47
2019-05-20T21:57:44.474Z,97449.20
2019-05-20T22:00:19.050Z,97452.98
2019-05-20T22:02:48.756Z,97450.02
2019-05-20T22:05:18.455Z,97450.25
2019-05-20T22:07:48.114Z,97446.21
2019-05-20T22:10:17.808Z,97445.58
2019-05-20T22:12:47.463Z,97441.59
2019-05-20T22:15:17.091Z,97450.83
2019-05-20T22:17:46.814Z,97447.64
2019-05-20T22:20:16.750Z,97449.06
2019-05-20T22:22:46.245Z,97447.45
2019-05-20T22:25:15.936Z,97456.86
2019-05-20T22:27:45.572Z,97459.02
2019-05-20T22:30:15.767Z,97454.98
2019-05-20T22:32:45.391Z,97457.67
2019-05-20T22:35:15.119Z,97453.36
2019-05-20T22:37:44.760Z,97449.06
2019-05-20T22:40:14.709Z,97453.36
2019-05-20T22:42:44.334Z,97450.98
2019-05-20T22:45:14.146Z,97448.98
2019-05-20T22:47:43.760Z,97453.41
2019-05-20T22:50:13.413Z,97452.06
2019-05-20T22:52:43.050Z,97468.20
2019-05-20T22:55:12.892Z,97458.55
2019-05-20T22:57:42.583Z,97465.61
2019-05-20T23:00:12.614Z,97464.77
2019-05-20T23:02:42.340Z,97469.88
2019-05-20T23:05:12.175Z,97459.23
2019-05-20T23:07:41.829Z,97465.85
2019-05-20T23:10:11.992Z,97470.00
2019-05-20T23:12:41.709Z,97471.08
2019-05-20T23:15:12.254Z,97466.93
2019-05-20T23:17:41.966Z,97468.89
2019-05-20T23:20:11.746Z,97468.93
2019-05-20T23:22:41.394Z,97466.16
2019-05-20T23:25:11.331Z,97459.44
2019-05-20T23:27:40.991Z,97450.04
2019-05-20T23:30:11.332Z,97459.75
2019-05-20T23:32:40.957Z,97453.53
2019-05-20T23:35:11.115Z,97458.63
2019-05-20T23:37:40.740Z,97459.79
2019-05-20T23:40:11.409Z,97457.17
2019-05-20T23:42:41.039Z,97465.78
2019-05-20T23:45:11.586Z,97466.28
2019-05-20T23:47:41.210Z,97472.61
2019-05-20T23:50:11.306Z,97467.93
2019-05-20T23:52:40.922Z,97466.24
2019-05-20T23:55:11.173Z,97468.84
2019-05-20T23:57:40.802Z,97476.34
